Morgan, Minnesota
Current Conditions -  °F | °C
As of 5:53 AM on Friday 31 Oct 2014 (Local Time) from KRWF Reporting Station
Clear Clear  
Wind Chill: 15°   Ceiling: Unl
Heat Index: 24°   Visibility: 10mi
Dew Point: 20°   Wind: 8mph
Humidity: 84%   Direction: 330°NNW
Pressure: 30.53"   Gusts: NA
Location:  44.42°N, 94.93°W
Report Text: KRWF 311053Z AUTO 33007KT 10SM CLR M04/M07 A3053 RMK AO2 SLP352 T10441067
Loading
Personal Weather Stations






























Interactive Weather Map
Tropical Storm Tracking
New forecast layout! Learn more

10-Day Weather Forecast

Advertisements
Track Severe Weather on mobile